Loup City, NE (68853)

01:58 CST je la 22an de januaro 2017 (GMT -0600)
Central | | Change Station

Elev 2087 ft 41.28 °N, 98.97 °W | Updated 35 seconds ago

Parte nuba
Parte nuba
26.3 °F
Sentas kiel 26 °F
N
1.0
Vento Varianta Vento from OkNOk

hodiaŭ
High -- | Low -- °F
--% Ebla precip.
hieraŭ
High -- | Low -- °F
Precip. -- co
Aerpremo 29.67 co
Vidodistanco 10.0 mejloj
Nuboj Sennuba
Venta
kvazaŭtemperaturo
26 °F
Rosopunkto 26 °F
Humido 98%
Pluvokvanto 0.00 co
Neĝprofundo Not available.
7:55 AM 5:40 PM
Malkreskanta Lunarko, 28% visible
METAR KODX 220753Z AUTO 33007KT 10SM CLR M02/M04 A2963 RMK AO2 SLP046 T10171039
Aerpremo 29.67 co
Vidodistanco 10.0 mejloj
Nuboj Sennuba
Venta
kvazaŭtemperaturo
26 °F
Rosopunkto 26 °F
Humido 98%
Pluvokvanto 0.00 co
Neĝprofundo Not available.
7:55 AM 5:40 PM
Malkreskanta Lunarko, 28% visible
METAR KODX 220753Z AUTO 33007KT 10SM CLR M02/M04 A2963 RMK AO2 SLP046 T10171039

Get Your Daily Forecast Email!

Thanks for signing up!

Be on the lookout for a verification email in your inbox.

You'll start receiving the daily forecast at 8 AM.

×

10-Day Weather Forecast

Almanac

Astronomio

Jan. 22, 2017 Leviĝo Subiro
Aktuala tempo
Civila krepusko
Naŭtika krepusko
Astronomia krepusko
Luno
Daŭro de videbla lumo
Daŭro de tago
Tomorrow will be .
, % of the Moon is Illuminated

Hodiaŭaj ekstremaĵoj

State Highs State Lows

Community

WunderPhotos

Upload Photos

1,962,540 photos uploaded!

WunderBlog® & News

Nearby

Aerkvalito

  Aerkvalito Aerkvalita indico Poluanto
Not available.

Neĝa profundeco

Station Depth Alteco

Earthquake Activity

Urbo Distance Mag. Time & Date
Minimum magnitude displayed is 2.5.

Coastal Water Temperatures

Loko Temperaturo

Stations

Najbaraj veter-stacioj

Loko de stacio Temp Venta
kvazaŭtemperaturo
Rosopunkto Humido Vento Precip. Elev Ĝisdatigita je Tipo
                   

Watches & Warnings

There are currently no watches in effect.